Emden — 3ERP5 — position and weather

sailwx.info

Track history (hours):
 
Tides and Currents Weather Stations Pressure Air Temp Water Temp Dewpoint Dewpoint Depression Visibility Wind Speed Wind Dir Waves Ship Positions

Emden

Last reported at 2015-Feb-28 14:30 UTC. Time now 2015-Mar-01 12:39 UTC.
Position N 50°10' W 002°05'.

Length 177 m; draft 7.7 m.

Type: Ship. MMSI: 355051000.

Date/timePositionNaut miles runAvg speedWind from/ knotsBaromVisibWave heightAir tempDewpointWater temp
2015-Feb-28 14:30N 50°10' W 002°05'2311.9
2015-Feb-28 12:32N 50°17' W 001°30'1613.0
2015-Feb-28 11:20N 50°21' W 001°06'1113.5
2015-Feb-28 10:31N 50°24' W 000°50'1313.0
2015-Feb-28 09:32N 50°27' W 000°31'1312.6
2015-Feb-28 08:30N 50°31' W 000°11'1212.3
2015-Feb-28 07:33N 50°34' E 000°07'1212.1
2015-Feb-28 06:33N 50°37' E 000°25'1211.7
2015-Feb-28 05:33N 50°42' E 000°42'1211.9
2015-Feb-28 04:33N 50°48' E 000°58'1312.6
2015-Feb-28 03:33N 50°56' E 001°13'1413.8
2015-Feb-28 02:33N 51°06' E 001°29'1313.3
2015-Feb-28 01:33N 51°18' E 001°39'1111.3
2015-Feb-28 00:33N 51°27' E 001°30'1313.4
2015-Feb-27 23:34N 51°29' E 001°08'1313.3
2015-Feb-27 22:34N 51°28' E 000°47'2 2.2
2015-Feb-27 21:31N 51°26' E 000°44'0 0.0
2015-Feb-27 20:31N 51°26' E 000°44'0 0.0
2015-Feb-27 19:34N 51°26' E 000°44'0 0.0
2015-Feb-27 18:34N 51°26' E 000°44'0 0.0
2015-Feb-27 17:33N 51°26' E 000°44'0 0.0
2015-Feb-27 16:33N 51°26' E 000°44'0 0.0
2015-Feb-27 15:33N 51°26' E 000°44'0 0.3
2015-Feb-27 14:34N 51°27' E 000°44'1211.7
2015-Feb-27 13:33N 51°30' E 001°02'1313.0
2015-Feb-27 12:33N 51°28' E 001°23'6 6.5
2015-Feb-27 11:34N 51°27' E 001°33'1212.2
2015-Feb-27 10:33N 51°33' E 001°51'1413.6
2015-Feb-27 09:33N 51°40' E 002°10'8513.6
2015-Feb-27 03:21N 52°44' E 003°40'1214.7
2015-Feb-27 02:33N 52°53' E 003°52'1414.1
2015-Feb-27 01:33N 53°03' E 004°09'1313.3
2015-Feb-27 00:33N 53°12' E 004°25'1313.1
2015-Feb-26 23:34N 53°24' E 004°34'1211.5
2015-Feb-26 22:33N 53°30' E 004°50'1212.5
2015-Feb-26 21:34N 53°35' E 005°10'1413.5
2015-Feb-26 20:34N 53°39' E 005°31'1413.9
2015-Feb-26 19:34N 53°44' E 005°53'1312.8
2015-Feb-26 18:34N 53°40' E 006°14'1212.1
2015-Feb-26 17:32N 53°37' E 006°34'1414.5
2015-Feb-26 16:34N 53°27' E 006°52'1110.5
2015-Feb-26 15:33N 53°20' E 007°04'4 3.7
2015-Feb-26 14:33N 53°20' E 007°10'0 0.3
2015-Feb-26 13:31N 53°20' E 007°11'0 0.0
2015-Feb-26 12:31N 53°20' E 007°11'0 0.0
2015-Feb-26 11:28N 53°20' E 007°11'0 0.0
2015-Feb-26 10:31N 53°20' E 007°11'0 0.0
2015-Feb-26 09:25N 53°20' E 007°11'0 0.0
2015-Feb-26 08:28N 53°20' E 007°11'0 0.0
2015-Feb-26 07:31N 53°20' E 007°11'0 0.0
2015-Feb-26 06:31N 53°20' E 007°11'0 0.0
2015-Feb-26 05:28N 53°20' E 007°11'0 0.0
2015-Feb-26 04:31N 53°20' E 007°11'0 0.0
2015-Feb-26 03:31N 53°20' E 007°11'0 0.0
2015-Feb-26 02:31N 53°20' E 007°11'0 0.0
2015-Feb-26 01:31N 53°20' E 007°11'0 0.0
2015-Feb-26 00:28N 53°20' E 007°11'0 0.0
2015-Feb-25 23:31N 53°20' E 007°11'0 0.0
2015-Feb-25 22:31N 53°20' E 007°11'0 0.0
2015-Feb-25 21:34N 53°20' E 007°11'0 0.0
2015-Feb-25 20:33N 53°20' E 007°11'0 0.0
2015-Feb-25 19:33N 53°20' E 007°11'0 0.0
2015-Feb-25 18:33N 53°20' E 007°11'0 0.0
2015-Feb-25 17:33N 53°20' E 007°11'0 0.0
2015-Feb-25 16:30N 53°20' E 007°11'0 0.0
2015-Feb-25 15:30N 53°20' E 007°11'0 0.0
2015-Feb-25 14:33N 53°20' E 007°11'0 0.0
2015-Feb-25 13:33N 53°20' E 007°11'0 0.0
2015-Feb-25 12:33N 53°20' E 007°11'0 0.0
2015-Feb-25 11:33N 53°20' E 007°11'0 0.0
2015-Feb-25 10:33N 53°20' E 007°11'0 0.0
2015-Feb-25 09:33N 53°20' E 007°11'0 0.0
2015-Feb-25 08:33N 53°20' E 007°11'0 0.0
2015-Feb-25 07:33N 53°20' E 007°11'6 1.3
2015-Feb-25 03:05N 53°19' E 007°01'510.2
2015-Feb-25 02:32N 53°24' E 006°57'1212.5
2015-Feb-25 01:33N 53°33' E 006°42'1110.9
2015-Feb-25 00:33N 53°37' E 006°25'4 4.1
2015-Feb-24 23:33N 53°40' E 006°20'4 4.2
2015-Feb-24 22:33N 53°40' E 006°13'9 9.3
2015-Feb-24 21:33N 53°39' E 005°58'1212.5
2015-Feb-24 20:33N 53°36' E 005°37'1414.4
2015-Feb-24 19:33N 53°31' E 005°14'1414.0
2015-Feb-24 18:33N 53°26' E 004°52'1312.7
2015-Feb-24 17:34N 53°17' E 004°37'1312.9
2015-Feb-24 16:33N 53°06' E 004°26'1312.7
2015-Feb-24 15:33N 52°54' E 004°17'1312.6
2015-Feb-24 14:30N 52°43' E 004°05'1312.5
2015-Feb-24 13:29N 52°34' E 003°51'1212.4
2015-Feb-24 12:33N 52°26' E 003°37'2512.5
2015-Feb-24 10:33N 52°09' E 003°07'4113.8
2015-Feb-24 07:33N 51°37' E 002°25'1615.6
2015-Feb-24 06:33N 51°24' E 002°11'1616.0
2015-Feb-24 05:33N 51°11' E 001°56'1817.9
2015-Feb-24 04:33N 50°59' E 001°35'5315.6
2015-Feb-24 01:09N 50°24' E 000°32'  
2015-Feb-21 10:15N 39°15' W 009°51'810.7
2015-Feb-21 09:31N 39°07' W 009°51'1111.2
2015-Feb-21 08:32N 38°57' W 009°52'1111.4
2015-Feb-21 07:33N 38°45' W 009°51'1211.0
2015-Feb-21 06:26N 38°34' W 009°44'1112.1
2015-Feb-21 05:31N 38°28' W 009°33'1212.1
2015-Feb-21 04:33N 38°21' W 009°21'1212.1
2015-Feb-21 03:33N 38°20' W 009°05'1010.2
2015-Feb-21 02:33N 38°28' W 008°57'5 4.8
2015-Feb-21 01:33N 38°31' W 008°52'0 0.0
2015-Feb-21 00:18N 38°31' W 008°52'0 0.0
2015-Feb-20 23:33N 38°31' W 008°52'0 0.0
2015-Feb-20 22:33N 38°31' W 008°52'0 0.0
2015-Feb-20 21:30N 38°31' W 008°52'0 0.0
2015-Feb-20 20:33N 38°31' W 008°52'0 0.0
2015-Feb-20 19:24N 38°31' W 008°52'0 0.0
2015-Feb-20 18:33N 38°31' W 008°52'0 0.0
2015-Feb-20 17:30N 38°31' W 008°52'0 0.0
2015-Feb-20 16:30N 38°31' W 008°52'0 0.0
2015-Feb-20 15:33N 38°31' W 008°52'0 0.0
2015-Feb-20 14:33N 38°31' W 008°52'0 0.0
2015-Feb-20 13:33N 38°31' W 008°52'0 0.0
2015-Feb-20 12:33N 38°31' W 008°52'0 0.0
2015-Feb-20 11:30N 38°31' W 008°52'0 0.0
2015-Feb-20 10:32N 38°31' W 008°52'0 0.0
2015-Feb-20 09:32N 38°31' W 008°52'0 0.0
2015-Feb-20 08:32N 38°31' W 008°52'0 0.0
2015-Feb-20 07:32N 38°31' W 008°52'0 0.0
2015-Feb-20 06:32N 38°31' W 008°52'0 0.0
2015-Feb-20 05:32N 38°31' W 008°52'0 0.0
2015-Feb-20 04:32N 38°31' W 008°52'0 0.0
2015-Feb-20 03:32N 38°31' W 008°52'0 0.0
2015-Feb-20 02:32N 38°31' W 008°52'0 0.0
2015-Feb-20 01:32N 38°31' W 008°52'0 0.0
2015-Feb-20 00:32N 38°31' W 008°52'0 0.0
2015-Feb-19 23:26N 38°31' W 008°52'0 0.0
2015-Feb-19 22:32N 38°31' W 008°52'0 0.0
2015-Feb-19 21:32N 38°31' W 008°52'0 0.0
2015-Feb-19 20:32N 38°31' W 008°52'0 0.0
2015-Feb-19 19:32N 38°31' W 008°52'0 0.0
2015-Feb-19 18:32N 38°31' W 008°52'0 0.0
2015-Feb-19 17:32N 38°31' W 008°52'0 0.0
2015-Feb-19 16:32N 38°31' W 008°52'0 0.0
2015-Feb-19 15:26N 38°31' W 008°52'2 2.2
2015-Feb-19 14:33N 38°31' W 008°54'8 8.4
2015-Feb-19 13:34N 38°24' W 009°01'1212.0
2015-Feb-19 12:33N 38°21' W 009°16'1515.4
2015-Feb-19 11:33N 38°26' W 009°35'1515.2
2015-Feb-19 10:33N 38°32' W 009°52'1413.6
2015-Feb-19 09:33N 38°42' W 010°04'1815.5
2015-Feb-19 08:23N 39°00' W 010°06'1416.2
2015-Feb-19 07:32N 39°14' W 010°07'19315.9
2015-Feb-18 19:21N 42°27' W 010°06'  
Track history (hours):
 
Tides and Currents Weather Stations Pressure Air Temp Water Temp Dewpoint Dewpoint Depression Visibility Wind Speed Wind Dir Waves Ship Positions

Emden

Last reported at 2015-Feb-28 14:30 UTC. Time now 2015-Mar-01 12:39 UTC.
Position N 50°10' W 002°05'.

Length 177 m; draft 7.7 m.

Type: Ship. MMSI: 355051000.

Date/timePositionNaut miles runAvg speedWind from/ knotsBaromVisibWave heightAir tempDewpointWater temp
2015-Feb-28 14:30N 50°10' W 002°05'2311.9
2015-Feb-28 12:32N 50°17' W 001°30'1613.0
2015-Feb-28 11:20N 50°21' W 001°06'1113.5
2015-Feb-28 10:31N 50°24' W 000°50'1313.0
2015-Feb-28 09:32N 50°27' W 000°31'1312.6
2015-Feb-28 08:30N 50°31' W 000°11'1212.3
2015-Feb-28 07:33N 50°34' E 000°07'1212.1
2015-Feb-28 06:33N 50°37' E 000°25'1211.7
2015-Feb-28 05:33N 50°42' E 000°42'1211.9
2015-Feb-28 04:33N 50°48' E 000°58'1312.6
2015-Feb-28 03:33N 50°56' E 001°13'1413.8
2015-Feb-28 02:33N 51°06' E 001°29'1313.3
2015-Feb-28 01:33N 51°18' E 001°39'1111.3
2015-Feb-28 00:33N 51°27' E 001°30'1313.4
2015-Feb-27 23:34N 51°29' E 001°08'1313.3
2015-Feb-27 22:34N 51°28' E 000°47'2 2.2
2015-Feb-27 21:31N 51°26' E 000°44'0 0.0
2015-Feb-27 20:31N 51°26' E 000°44'0 0.0
2015-Feb-27 19:34N 51°26' E 000°44'0 0.0
2015-Feb-27 18:34N 51°26' E 000°44'0 0.0
2015-Feb-27 17:33N 51°26' E 000°44'0 0.0
2015-Feb-27 16:33N 51°26' E 000°44'0 0.0
2015-Feb-27 15:33N 51°26' E 000°44'0 0.3
2015-Feb-27 14:34N 51°27' E 000°44'1211.7
2015-Feb-27 13:33N 51°30' E 001°02'1313.0
2015-Feb-27 12:33N 51°28' E 001°23'6 6.5
2015-Feb-27 11:34N 51°27' E 001°33'1212.2
2015-Feb-27 10:33N 51°33' E 001°51'1413.6
2015-Feb-27 09:33N 51°40' E 002°10'8513.6
2015-Feb-27 03:21N 52°44' E 003°40'1214.7
2015-Feb-27 02:33N 52°53' E 003°52'1414.1
2015-Feb-27 01:33N 53°03' E 004°09'1313.3
2015-Feb-27 00:33N 53°12' E 004°25'1313.1
2015-Feb-26 23:34N 53°24' E 004°34'1211.5
2015-Feb-26 22:33N 53°30' E 004°50'1212.5
2015-Feb-26 21:34N 53°35' E 005°10'1413.5
2015-Feb-26 20:34N 53°39' E 005°31'1413.9
2015-Feb-26 19:34N 53°44' E 005°53'1312.8
2015-Feb-26 18:34N 53°40' E 006°14'1212.1
2015-Feb-26 17:32N 53°37' E 006°34'1414.5
2015-Feb-26 16:34N 53°27' E 006°52'1110.5
2015-Feb-26 15:33N 53°20' E 007°04'4 3.7
2015-Feb-26 14:33N 53°20' E 007°10'0 0.3
2015-Feb-26 13:31N 53°20' E 007°11'0 0.0
2015-Feb-26 12:31N 53°20' E 007°11'0 0.0
2015-Feb-26 11:28N 53°20' E 007°11'0 0.0
2015-Feb-26 10:31N 53°20' E 007°11'0 0.0
2015-Feb-26 09:25N 53°20' E 007°11'0 0.0
2015-Feb-26 08:28N 53°20' E 007°11'0 0.0
2015-Feb-26 07:31N 53°20' E 007°11'0 0.0
2015-Feb-26 06:31N 53°20' E 007°11'0 0.0
2015-Feb-26 05:28N 53°20' E 007°11'0 0.0
2015-Feb-26 04:31N 53°20' E 007°11'0 0.0
2015-Feb-26 03:31N 53°20' E 007°11'0 0.0
2015-Feb-26 02:31N 53°20' E 007°11'0 0.0
2015-Feb-26 01:31N 53°20' E 007°11'0 0.0
2015-Feb-26 00:28N 53°20' E 007°11'0 0.0
2015-Feb-25 23:31N 53°20' E 007°11'0 0.0
2015-Feb-25 22:31N 53°20' E 007°11'0 0.0
2015-Feb-25 21:34N 53°20' E 007°11'0 0.0
2015-Feb-25 20:33N 53°20' E 007°11'0 0.0
2015-Feb-25 19:33N 53°20' E 007°11'0 0.0
2015-Feb-25 18:33N 53°20' E 007°11'0 0.0
2015-Feb-25 17:33N 53°20' E 007°11'0 0.0
2015-Feb-25 16:30N 53°20' E 007°11'0 0.0
2015-Feb-25 15:30N 53°20' E 007°11'0 0.0
2015-Feb-25 14:33N 53°20' E 007°11'0 0.0
2015-Feb-25 13:33N 53°20' E 007°11'0 0.0
2015-Feb-25 12:33N 53°20' E 007°11'0 0.0
2015-Feb-25 11:33N 53°20' E 007°11'0 0.0
2015-Feb-25 10:33N 53°20' E 007°11'0 0.0
2015-Feb-25 09:33N 53°20' E 007°11'0 0.0
2015-Feb-25 08:33N 53°20' E 007°11'0 0.0
2015-Feb-25 07:33N 53°20' E 007°11'6 1.3
2015-Feb-25 03:05N 53°19' E 007°01'510.2
2015-Feb-25 02:32N 53°24' E 006°57'1212.5
2015-Feb-25 01:33N 53°33' E 006°42'1110.9
2015-Feb-25 00:33N 53°37' E 006°25'4 4.1
2015-Feb-24 23:33N 53°40' E 006°20'4 4.2
2015-Feb-24 22:33N 53°40' E 006°13'9 9.3
2015-Feb-24 21:33N 53°39' E 005°58'1212.5
2015-Feb-24 20:33N 53°36' E 005°37'1414.4
2015-Feb-24 19:33N 53°31' E 005°14'1414.0
2015-Feb-24 18:33N 53°26' E 004°52'1312.7
2015-Feb-24 17:34N 53°17' E 004°37'1312.9
2015-Feb-24 16:33N 53°06' E 004°26'1312.7
2015-Feb-24 15:33N 52°54' E 004°17'1312.6
2015-Feb-24 14:30N 52°43' E 004°05'1312.5
2015-Feb-24 13:29N 52°34' E 003°51'1212.4
2015-Feb-24 12:33N 52°26' E 003°37'2512.5
2015-Feb-24 10:33N 52°09' E 003°07'4113.8
2015-Feb-24 07:33N 51°37' E 002°25'1615.6
2015-Feb-24 06:33N 51°24' E 002°11'1616.0
2015-Feb-24 05:33N 51°11' E 001°56'1817.9
2015-Feb-24 04:33N 50°59' E 001°35'5315.6
2015-Feb-24 01:09N 50°24' E 000°32'  
2015-Feb-21 10:15N 39°15' W 009°51'810.7
2015-Feb-21 09:31N 39°07' W 009°51'1111.2
2015-Feb-21 08:32N 38°57' W 009°52'1111.4
2015-Feb-21 07:33N 38°45' W 009°51'1211.0
2015-Feb-21 06:26N 38°34' W 009°44'1112.1
2015-Feb-21 05:31N 38°28' W 009°33'1212.1
2015-Feb-21 04:33N 38°21' W 009°21'1212.1
2015-Feb-21 03:33N 38°20' W 009°05'1010.2
2015-Feb-21 02:33N 38°28' W 008°57'5 4.8
2015-Feb-21 01:33N 38°31' W 008°52'0 0.0
2015-Feb-21 00:18N 38°31' W 008°52'0 0.0
2015-Feb-20 23:33N 38°31' W 008°52'0 0.0
2015-Feb-20 22:33N 38°31' W 008°52'0 0.0
2015-Feb-20 21:30N 38°31' W 008°52'0 0.0
2015-Feb-20 20:33N 38°31' W 008°52'0 0.0
2015-Feb-20 19:24N 38°31' W 008°52'0 0.0
2015-Feb-20 18:33N 38°31' W 008°52'0 0.0
2015-Feb-20 17:30N 38°31' W 008°52'0 0.0
2015-Feb-20 16:30N 38°31' W 008°52'0 0.0
2015-Feb-20 15:33N 38°31' W 008°52'0 0.0
2015-Feb-20 14:33N 38°31' W 008°52'0 0.0
2015-Feb-20 13:33N 38°31' W 008°52'0 0.0
2015-Feb-20 12:33N 38°31' W 008°52'0 0.0
2015-Feb-20 11:30N 38°31' W 008°52'0 0.0
2015-Feb-20 10:32N 38°31' W 008°52'0 0.0
2015-Feb-20 09:32N 38°31' W 008°52'0 0.0
2015-Feb-20 08:32N 38°31' W 008°52'0 0.0
2015-Feb-20 07:32N 38°31' W 008°52'0 0.0
2015-Feb-20 06:32N 38°31' W 008°52'0 0.0
2015-Feb-20 05:32N 38°31' W 008°52'0 0.0
2015-Feb-20 04:32N 38°31' W 008°52'0 0.0
2015-Feb-20 03:32N 38°31' W 008°52'0 0.0
2015-Feb-20 02:32N 38°31' W 008°52'0 0.0
2015-Feb-20 01:32N 38°31' W 008°52'0 0.0
2015-Feb-20 00:32N 38°31' W 008°52'0 0.0
2015-Feb-19 23:26N 38°31' W 008°52'0 0.0
2015-Feb-19 22:32N 38°31' W 008°52'0 0.0
2015-Feb-19 21:32N 38°31' W 008°52'0 0.0
2015-Feb-19 20:32N 38°31' W 008°52'0 0.0
2015-Feb-19 19:32N 38°31' W 008°52'0 0.0
2015-Feb-19 18:32N 38°31' W 008°52'0 0.0
2015-Feb-19 17:32N 38°31' W 008°52'0 0.0
2015-Feb-19 16:32N 38°31' W 008°52'0 0.0
2015-Feb-19 15:26N 38°31' W 008°52'2 2.2
2015-Feb-19 14:33N 38°31' W 008°54'8 8.4
2015-Feb-19 13:34N 38°24' W 009°01'1212.0
2015-Feb-19 12:33N 38°21' W 009°16'1515.4
2015-Feb-19 11:33N 38°26' W 009°35'1515.2
2015-Feb-19 10:33N 38°32' W 009°52'1413.6
2015-Feb-19 09:33N 38°42' W 010°04'1815.5
2015-Feb-19 08:23N 39°00' W 010°06'1416.2
2015-Feb-19 07:32N 39°14' W 010°07'19315.9
2015-Feb-18 19:21N 42°27' W 010°06'  

Dump ship's entire track history